sensor_id;sensor_type;location;lat;lon;timestamp;P1;durP1;ratioP1;P2;durP2;ratioP2
69744;SDS011;57015;50.120;-5.168;2023-03-01T00:00:10;7.65;;;2.28;;
69744;SDS011;57015;50.120;-5.168;2023-03-01T00:02:36;7.88;;;2.63;;
69744;SDS011;57015;50.120;-5.168;2023-03-01T00:05:01;10.30;;;3.33;;
69744;SDS011;57015;50.120;-5.168;2023-03-01T00:07:27;8.38;;;3.00;;
69744;SDS011;57015;50.120;-5.168;2023-03-01T00:09:53;7.43;;;3.47;;
69744;SDS011;57015;50.120;-5.168;2023-03-01T00:12:19;7.77;;;2.50;;
69744;SDS011;57015;50.120;-5.168;2023-03-01T00:14:44;7.30;;;2.97;;
69744;SDS011;57015;50.120;-5.168;2023-03-01T00:17:09;9.97;;;3.53;;
69744;SDS011;57015;50.120;-5.168;2023-03-01T00:19:35;7.40;;;3.10;;
69744;SDS011;57015;50.120;-5.168;2023-03-01T00:22:00;8.53;;;3.53;;
69744;SDS011;57015;50.120;-5.168;2023-03-01T00:24:26;6.57;;;2.90;;
69744;SDS011;57015;50.120;-5.168;2023-03-01T00:26:54;10.40;;;3.23;;
69744;SDS011;57015;50.120;-5.168;2023-03-01T00:29:23;9.38;;;3.83;;
69744;SDS011;57015;50.120;-5.168;2023-03-01T00:31:49;10.63;;;3.47;;
69744;SDS011;57015;50.120;-5.168;2023-03-01T00:34:15;7.97;;;2.97;;
69744;SDS011;57015;50.120;-5.168;2023-03-01T00:36:41;6.75;;;3.05;;
69744;SDS011;57015;50.120;-5.168;2023-03-01T00:39:09;7.40;;;3.70;;
69744;SDS011;57015;50.120;-5.168;2023-03-01T00:41:37;7.73;;;3.70;;
69744;SDS011;57015;50.120;-5.168;2023-03-01T00:44:02;7.65;;;3.58;;
69744;SDS011;57015;50.120;-5.168;2023-03-01T00:46:28;6.27;;;3.17;;
69744;SDS011;57015;50.120;-5.168;2023-03-01T00:48:55;7.43;;;3.30;;
69744;SDS011;57015;50.120;-5.168;2023-03-01T00:51:21;6.50;;;3.20;;
69744;SDS011;57015;50.120;-5.168;2023-03-01T00:53:52;8.32;;;3.65;;
69744;SDS011;57015;50.120;-5.168;2023-03-01T00:56:19;9.38;;;3.95;;
69744;SDS011;57015;50.120;-5.168;2023-03-01T00:58:44;7.67;;;3.97;;
69744;SDS011;57015;50.120;-5.168;2023-03-01T01:01:11;6.47;;;3.47;;
69744;SDS011;57015;50.120;-5.168;2023-03-01T01:06:22;8.20;;;3.50;;
69744;SDS011;57015;50.120;-5.168;2023-03-01T01:08:49;7.68;;;3.80;;
69744;SDS011;57015;50.120;-5.168;2023-03-01T01:11:16;9.18;;;4.15;;
69744;SDS011;57015;50.120;-5.168;2023-03-01T01:13:41;8.03;;;3.63;;
69744;SDS011;57015;50.120;-5.168;2023-03-01T01:16:08;8.73;;;3.42;;
69744;SDS011;57015;50.120;-5.168;2023-03-01T01:18:34;8.00;;;3.80;;
69744;SDS011;57015;50.120;-5.168;2023-03-01T01:21:03;8.93;;;3.97;;
69744;SDS011;57015;50.120;-5.168;2023-03-01T01:23:32;6.30;;;3.42;;
69744;SDS011;57015;50.120;-5.168;2023-03-01T01:25:57;7.53;;;3.80;;
69744;SDS011;57015;50.120;-5.168;2023-03-01T01:28:28;8.07;;;3.87;;
69744;SDS011;57015;50.120;-5.168;2023-03-01T01:30:53;8.57;;;4.00;;
69744;SDS011;57015;50.120;-5.168;2023-03-01T01:33:19;8.77;;;3.75;;
69744;SDS011;57015;50.120;-5.168;2023-03-01T01:35:44;7.43;;;3.70;;
69744;SDS011;57015;50.120;-5.168;2023-03-01T01:38:10;8.57;;;4.10;;
69744;SDS011;57015;50.120;-5.168;2023-03-01T01:40:42;8.43;;;3.92;;
69744;SDS011;57015;50.120;-5.168;2023-03-01T01:43:13;7.63;;;3.80;;
69744;SDS011;57015;50.120;-5.168;2023-03-01T01:45:55;7.72;;;4.13;;
69744;SDS011;57015;50.120;-5.168;2023-03-01T01:48:24;8.18;;;3.83;;
69744;SDS011;57015;50.120;-5.168;2023-03-01T01:51:05;8.85;;;4.22;;
69744;SDS011;57015;50.120;-5.168;2023-03-01T01:53:31;9.10;;;3.97;;
69744;SDS011;57015;50.120;-5.168;2023-03-01T01:55:58;9.73;;;4.40;;
69744;SDS011;57015;50.120;-5.168;2023-03-01T01:58:24;7.35;;;3.80;;
69744;SDS011;57015;50.120;-5.168;2023-03-01T02:00:52;9.47;;;3.77;;
69744;SDS011;57015;50.120;-5.168;2023-03-01T02:03:20;8.25;;;3.80;;
69744;SDS011;57015;50.120;-5.168;2023-03-01T02:08:13;8.83;;;3.97;;
69744;SDS011;57015;50.120;-5.168;2023-03-01T02:10:40;9.60;;;3.88;;
69744;SDS011;57015;50.120;-5.168;2023-03-01T02:13:06;11.57;;;4.30;;
69744;SDS011;57015;50.120;-5.168;2023-03-01T02:15:35;7.63;;;3.70;;
69744;SDS011;57015;50.120;-5.168;2023-03-01T02:18:02;7.65;;;3.95;;
69744;SDS011;57015;50.120;-5.168;2023-03-01T02:20:33;7.22;;;3.35;;
69744;SDS011;57015;50.120;-5.168;2023-03-01T02:23:01;8.95;;;3.90;;
69744;SDS011;57015;50.120;-5.168;2023-03-01T02:25:38;7.63;;;3.80;;
69744;SDS011;57015;50.120;-5.168;2023-03-01T02:30:41;8.02;;;3.50;;
69744;SDS011;57015;50.120;-5.168;2023-03-01T02:33:29;6.63;;;3.43;;
69744;SDS011;57015;50.120;-5.168;2023-03-01T02:35:58;7.93;;;3.63;;
69744;SDS011;57015;50.120;-5.168;2023-03-01T02:38:24;8.00;;;4.03;;
69744;SDS011;57015;50.120;-5.168;2023-03-01T02:40:49;7.50;;;3.73;;
69744;SDS011;57015;50.120;-5.168;2023-03-01T02:43:16;7.30;;;3.80;;
69744;SDS011;57015;50.120;-5.168;2023-03-01T02:45:50;8.85;;;3.67;;
69744;SDS011;57015;50.120;-5.168;2023-03-01T02:48:18;8.38;;;3.65;;
69744;SDS011;57015;50.120;-5.168;2023-03-01T02:51:04;7.43;;;3.50;;
69744;SDS011;57015;50.120;-5.168;2023-03-01T02:56:07;8.02;;;3.65;;
69744;SDS011;57015;50.120;-5.168;2023-03-01T02:58:38;8.98;;;3.47;;
69744;SDS011;57015;50.120;-5.168;2023-03-01T03:01:10;8.68;;;4.53;;
69744;SDS011;57015;50.120;-5.168;2023-03-01T03:03:40;8.50;;;3.50;;
69744;SDS011;57015;50.120;-5.168;2023-03-01T03:06:05;7.13;;;3.80;;
69744;SDS011;57015;50.120;-5.168;2023-03-01T03:08:31;8.48;;;3.63;;
69744;SDS011;57015;50.120;-5.168;2023-03-01T03:10:56;9.93;;;3.58;;
69744;SDS011;57015;50.120;-5.168;2023-03-01T03:13:22;6.83;;;2.90;;
69744;SDS011;57015;50.120;-5.168;2023-03-01T03:15:47;6.07;;;3.10;;
69744;SDS011;57015;50.120;-5.168;2023-03-01T03:18:14;6.70;;;3.37;;
69744;SDS011;57015;50.120;-5.168;2023-03-01T03:20:41;6.47;;;2.92;;
69744;SDS011;57015;50.120;-5.168;2023-03-01T03:23:07;8.15;;;3.05;;
69744;SDS011;57015;50.120;-5.168;2023-03-01T03:25:33;7.63;;;3.30;;
69744;SDS011;57015;50.120;-5.168;2023-03-01T03:28:02;7.30;;;3.47;;
69744;SDS011;57015;50.120;-5.168;2023-03-01T03:30:35;6.70;;;3.07;;
69744;SDS011;57015;50.120;-5.168;2023-03-01T03:33:01;6.45;;;2.63;;
69744;SDS011;57015;50.120;-5.168;2023-03-01T03:35:31;6.47;;;3.10;;
69744;SDS011;57015;50.120;-5.168;2023-03-01T03:38:03;6.82;;;3.20;;
69744;SDS011;57015;50.120;-5.168;2023-03-01T03:40:41;6.60;;;2.80;;
69744;SDS011;57015;50.120;-5.168;2023-03-01T03:43:08;5.40;;;2.58;;
69744;SDS011;57015;50.120;-5.168;2023-03-01T03:45:35;6.43;;;3.13;;
69744;SDS011;57015;50.120;-5.168;2023-03-01T03:48:01;6.53;;;2.80;;
69744;SDS011;57015;50.120;-5.168;2023-03-01T03:50:28;6.97;;;2.47;;
69744;SDS011;57015;50.120;-5.168;2023-03-01T03:52:53;4.83;;;2.20;;
69744;SDS011;57015;50.120;-5.168;2023-03-01T03:55:19;6.10;;;2.90;;
69744;SDS011;57015;50.120;-5.168;2023-03-01T03:57:45;5.07;;;2.40;;
69744;SDS011;57015;50.120;-5.168;2023-03-01T04:00:18;5.55;;;2.30;;
69744;SDS011;57015;50.120;-5.168;2023-03-01T04:02:44;5.93;;;2.35;;
69744;SDS011;57015;50.120;-5.168;2023-03-01T04:05:11;5.28;;;1.73;;
69744;SDS011;57015;50.120;-5.168;2023-03-01T04:07:39;5.00;;;2.08;;
69744;SDS011;57015;50.120;-5.168;2023-03-01T04:10:05;3.80;;;1.70;;
69744;SDS011;57015;50.120;-5.168;2023-03-01T04:12:34;5.45;;;1.73;;
69744;SDS011;57015;50.120;-5.168;2023-03-01T04:15:00;5.32;;;1.73;;
69744;SDS011;57015;50.120;-5.168;2023-03-01T04:17:26;3.92;;;1.70;;
69744;SDS011;57015;50.120;-5.168;2023-03-01T04:19:51;4.78;;;1.88;;
69744;SDS011;57015;50.120;-5.168;2023-03-01T04:22:16;4.10;;;1.60;;
69744;SDS011;57015;50.120;-5.168;2023-03-01T04:24:43;5.10;;;1.70;;
69744;SDS011;57015;50.120;-5.168;2023-03-01T04:27:09;4.22;;;1.50;;
69744;SDS011;57015;50.120;-5.168;2023-03-01T04:29:35;4.15;;;1.30;;
69744;SDS011;57015;50.120;-5.168;2023-03-01T04:32:00;4.70;;;1.70;;
69744;SDS011;57015;50.120;-5.168;2023-03-01T04:34:25;3.50;;;1.77;;
69744;SDS011;57015;50.120;-5.168;2023-03-01T04:36:54;3.38;;;1.20;;
69744;SDS011;57015;50.120;-5.168;2023-03-01T04:39:19;4.00;;;1.53;;
69744;SDS011;57015;50.120;-5.168;2023-03-01T04:41:44;3.97;;;1.47;;
69744;SDS011;57015;50.120;-5.168;2023-03-01T04:44:10;3.60;;;1.40;;
69744;SDS011;57015;50.120;-5.168;2023-03-01T04:46:36;4.90;;;1.50;;
69744;SDS011;57015;50.120;-5.168;2023-03-01T04:49:02;4.03;;;1.50;;
69744;SDS011;57015;50.120;-5.168;2023-03-01T04:51:27;4.40;;;1.50;;
69744;SDS011;57015;50.120;-5.168;2023-03-01T04:53:53;3.93;;;1.63;;
69744;SDS011;57015;50.120;-5.168;2023-03-01T04:56:18;6.10;;;1.60;;
69744;SDS011;57015;50.120;-5.168;2023-03-01T04:58:44;5.57;;;2.27;;
69744;SDS011;57015;50.120;-5.168;2023-03-01T05:01:12;5.63;;;1.88;;
69744;SDS011;57015;50.120;-5.168;2023-03-01T05:03:46;4.88;;;1.58;;
69744;SDS011;57015;50.120;-5.168;2023-03-01T05:06:13;6.68;;;1.83;;
69744;SDS011;57015;50.120;-5.168;2023-03-01T05:08:39;3.97;;;1.83;;
69744;SDS011;57015;50.120;-5.168;2023-03-01T05:11:05;5.63;;;1.73;;
69744;SDS011;57015;50.120;-5.168;2023-03-01T05:13:34;4.63;;;1.92;;
69744;SDS011;57015;50.120;-5.168;2023-03-01T05:16:03;4.03;;;1.67;;
69744;SDS011;57015;50.120;-5.168;2023-03-01T05:18:31;4.28;;;1.60;;
69744;SDS011;57015;50.120;-5.168;2023-03-01T05:21:07;5.50;;;1.98;;
69744;SDS011;57015;50.120;-5.168;2023-03-01T05:23:34;4.20;;;1.37;;
69744;SDS011;57015;50.120;-5.168;2023-03-01T05:26:01;5.13;;;1.75;;
69744;SDS011;57015;50.120;-5.168;2023-03-01T05:28:28;4.05;;;1.70;;
69744;SDS011;57015;50.120;-5.168;2023-03-01T05:30:54;3.33;;;1.27;;
69744;SDS011;57015;50.120;-5.168;2023-03-01T05:33:20;4.13;;;1.50;;
69744;SDS011;57015;50.120;-5.168;2023-03-01T05:35:47;3.42;;;1.45;;
69744;SDS011;57015;50.120;-5.168;2023-03-01T05:38:13;5.38;;;1.70;;
69744;SDS011;57015;50.120;-5.168;2023-03-01T05:40:40;3.20;;;1.17;;
69744;SDS011;57015;50.120;-5.168;2023-03-01T05:43:06;4.78;;;1.75;;
69744;SDS011;57015;50.120;-5.168;2023-03-01T05:45:32;4.32;;;1.60;;
69744;SDS011;57015;50.120;-5.168;2023-03-01T05:47:58;3.07;;;1.43;;
69744;SDS011;57015;50.120;-5.168;2023-03-01T05:50:31;3.53;;;1.25;;
69744;SDS011;57015;50.120;-5.168;2023-03-01T05:52:59;3.35;;;1.38;;
69744;SDS011;57015;50.120;-5.168;2023-03-01T05:55:26;3.27;;;1.40;;
69744;SDS011;57015;50.120;-5.168;2023-03-01T05:57:51;6.40;;;1.13;;
69744;SDS011;57015;50.120;-5.168;2023-03-01T06:00:18;3.33;;;1.30;;
69744;SDS011;57015;50.120;-5.168;2023-03-01T06:02:44;4.15;;;1.35;;
69744;SDS011;57015;50.120;-5.168;2023-03-01T06:05:13;4.10;;;1.33;;
69744;SDS011;57015;50.120;-5.168;2023-03-01T06:07:39;3.15;;;1.20;;
69744;SDS011;57015;50.120;-5.168;2023-03-01T06:10:05;2.97;;;1.10;;
69744;SDS011;57015;50.120;-5.168;2023-03-01T06:12:32;2.63;;;1.10;;
69744;SDS011;57015;50.120;-5.168;2023-03-01T06:14:58;3.40;;;1.23;;
69744;SDS011;57015;50.120;-5.168;2023-03-01T06:17:24;3.95;;;1.27;;
69744;SDS011;57015;50.120;-5.168;2023-03-01T06:19:49;3.47;;;1.30;;
69744;SDS011;57015;50.120;-5.168;2023-03-01T06:22:15;2.90;;;0.80;;
69744;SDS011;57015;50.120;-5.168;2023-03-01T06:24:40;3.27;;;1.00;;
69744;SDS011;57015;50.120;-5.168;2023-03-01T06:27:05;2.13;;;0.90;;
69744;SDS011;57015;50.120;-5.168;2023-03-01T06:29:31;3.67;;;0.82;;
69744;SDS011;57015;50.120;-5.168;2023-03-01T06:31:56;2.73;;;0.77;;
69744;SDS011;57015;50.120;-5.168;2023-03-01T06:34:22;4.43;;;1.07;;
69744;SDS011;57015;50.120;-5.168;2023-03-01T06:36:47;2.30;;;0.80;;
69744;SDS011;57015;50.120;-5.168;2023-03-01T06:39:13;2.87;;;1.00;;
69744;SDS011;57015;50.120;-5.168;2023-03-01T06:41:38;3.50;;;0.90;;
69744;SDS011;57015;50.120;-5.168;2023-03-01T06:44:03;3.30;;;1.10;;
69744;SDS011;57015;50.120;-5.168;2023-03-01T06:46:29;2.60;;;0.60;;
69744;SDS011;57015;50.120;-5.168;2023-03-01T06:48:55;2.58;;;0.80;;
69744;SDS011;57015;50.120;-5.168;2023-03-01T06:51:20;4.43;;;1.23;;
69744;SDS011;57015;50.120;-5.168;2023-03-01T06:53:46;2.33;;;0.83;;
69744;SDS011;57015;50.120;-5.168;2023-03-01T06:56:11;3.47;;;1.10;;
69744;SDS011;57015;50.120;-5.168;2023-03-01T06:58:37;2.00;;;0.70;;
69744;SDS011;57015;50.120;-5.168;2023-03-01T07:01:08;2.07;;;0.60;;
69744;SDS011;57015;50.120;-5.168;2023-03-01T07:03:34;2.47;;;0.70;;
69744;SDS011;57015;50.120;-5.168;2023-03-01T07:05:59;2.97;;;1.17;;
69744;SDS011;57015;50.120;-5.168;2023-03-01T07:08:25;2.57;;;0.97;;
69744;SDS011;57015;50.120;-5.168;2023-03-01T07:10:59;2.13;;;0.80;;
69744;SDS011;57015;50.120;-5.168;2023-03-01T07:13:26;2.75;;;0.85;;
69744;SDS011;57015;50.120;-5.168;2023-03-01T07:15:52;2.23;;;0.80;;
69744;SDS011;57015;50.120;-5.168;2023-03-01T07:18:17;2.43;;;0.80;;
69744;SDS011;57015;50.120;-5.168;2023-03-01T07:20:43;2.70;;;0.80;;
69744;SDS011;57015;50.120;-5.168;2023-03-01T07:23:08;2.27;;;0.70;;
69744;SDS011;57015;50.120;-5.168;2023-03-01T07:25:33;3.15;;;1.00;;
69744;SDS011;57015;50.120;-5.168;2023-03-01T07:27:59;2.45;;;1.00;;
69744;SDS011;57015;50.120;-5.168;2023-03-01T07:30:25;2.57;;;0.77;;
69744;SDS011;57015;50.120;-5.168;2023-03-01T07:32:52;2.10;;;0.68;;
69744;SDS011;57015;50.120;-5.168;2023-03-01T07:35:18;1.73;;;0.70;;
69744;SDS011;57015;50.120;-5.168;2023-03-01T07:37:43;2.80;;;0.77;;
69744;SDS011;57015;50.120;-5.168;2023-03-01T07:40:09;2.23;;;0.67;;
69744;SDS011;57015;50.120;-5.168;2023-03-01T07:42:35;1.58;;;0.50;;
69744;SDS011;57015;50.120;-5.168;2023-03-01T07:45:00;2.57;;;0.80;;
69744;SDS011;57015;50.120;-5.168;2023-03-01T07:47:26;2.07;;;0.70;;
69744;SDS011;57015;50.120;-5.168;2023-03-01T07:49:51;3.15;;;0.70;;
69744;SDS011;57015;50.120;-5.168;2023-03-01T07:52:16;3.17;;;0.90;;
69744;SDS011;57015;50.120;-5.168;2023-03-01T07:54:42;2.53;;;0.90;;
69744;SDS011;57015;50.120;-5.168;2023-03-01T07:57:09;6.55;;;1.02;;
69744;SDS011;57015;50.120;-5.168;2023-03-01T07:59:34;2.50;;;0.70;;
69744;SDS011;57015;50.120;-5.168;2023-03-01T08:01:59;3.10;;;0.90;;
69744;SDS011;57015;50.120;-5.168;2023-03-01T08:04:25;3.07;;;0.77;;
69744;SDS011;57015;50.120;-5.168;2023-03-01T08:06:51;2.83;;;0.90;;
69744;SDS011;57015;50.120;-5.168;2023-03-01T08:09:17;2.30;;;0.70;;
69744;SDS011;57015;50.120;-5.168;2023-03-01T08:11:42;2.22;;;0.70;;
69744;SDS011;57015;50.120;-5.168;2023-03-01T08:14:08;2.33;;;0.63;;
69744;SDS011;57015;50.120;-5.168;2023-03-01T08:16:33;2.03;;;0.70;;
69744;SDS011;57015;50.120;-5.168;2023-03-01T08:19:10;2.50;;;0.93;;
69744;SDS011;57015;50.120;-5.168;2023-03-01T08:21:36;3.08;;;0.70;;
69744;SDS011;57015;50.120;-5.168;2023-03-01T08:24:03;2.07;;;0.80;;
69744;SDS011;57015;50.120;-5.168;2023-03-01T08:26:29;3.67;;;0.75;;
69744;SDS011;57015;50.120;-5.168;2023-03-01T08:28:55;1.98;;;0.68;;
69744;SDS011;57015;50.120;-5.168;2023-03-01T08:33:55;2.85;;;0.60;;
69744;SDS011;57015;50.120;-5.168;2023-03-01T08:36:24;2.58;;;0.88;;
69744;SDS011;57015;50.120;-5.168;2023-03-01T08:38:51;2.03;;;0.73;;
69744;SDS011;57015;50.120;-5.168;2023-03-01T08:41:17;2.57;;;0.83;;
69744;SDS011;57015;50.120;-5.168;2023-03-01T08:43:42;1.80;;;0.55;;
69744;SDS011;57015;50.120;-5.168;2023-03-01T08:46:08;2.40;;;0.70;;
69744;SDS011;57015;50.120;-5.168;2023-03-01T08:48:33;1.45;;;0.50;;
69744;SDS011;57015;50.120;-5.168;2023-03-01T08:51:32;3.40;;;0.80;;
69744;SDS011;57015;50.120;-5.168;2023-03-01T08:53:51;2.87;;;0.80;;
69744;SDS011;57015;50.120;-5.168;2023-03-01T08:56:17;2.53;;;0.85;;
69744;SDS011;57015;50.120;-5.168;2023-03-01T08:58:46;3.15;;;0.90;;
69744;SDS011;57015;50.120;-5.168;2023-03-01T09:01:14;3.67;;;0.90;;
69744;SDS011;57015;50.120;-5.168;2023-03-01T09:03:41;2.63;;;0.68;;
69744;SDS011;57015;50.120;-5.168;2023-03-01T09:06:07;2.23;;;0.53;;
69744;SDS011;57015;50.120;-5.168;2023-03-01T09:08:37;2.55;;;0.80;;
69744;SDS011;57015;50.120;-5.168;2023-03-01T09:11:04;2.13;;;0.73;;
69744;SDS011;57015;50.120;-5.168;2023-03-01T09:13:30;3.42;;;0.88;;
69744;SDS011;57015;50.120;-5.168;2023-03-01T09:16:00;2.53;;;0.68;;
69744;SDS011;57015;50.120;-5.168;2023-03-01T09:18:26;2.83;;;0.70;;
69744;SDS011;57015;50.120;-5.168;2023-03-01T09:20:51;2.37;;;0.70;;
69744;SDS011;57015;50.120;-5.168;2023-03-01T09:23:17;1.60;;;0.40;;
69744;SDS011;57015;50.120;-5.168;2023-03-01T09:25:43;2.10;;;0.80;;
69744;SDS011;57015;50.120;-5.168;2023-03-01T09:28:08;3.87;;;0.83;;
69744;SDS011;57015;50.120;-5.168;2023-03-01T09:30:35;3.00;;;0.80;;
69744;SDS011;57015;50.120;-5.168;2023-03-01T09:33:01;2.70;;;0.90;;
69744;SDS011;57015;50.120;-5.168;2023-03-01T09:35:26;2.67;;;0.60;;
69744;SDS011;57015;50.120;-5.168;2023-03-01T09:37:52;3.40;;;0.88;;
69744;SDS011;57015;50.120;-5.168;2023-03-01T09:40:19;2.47;;;0.73;;
69744;SDS011;57015;50.120;-5.168;2023-03-01T09:42:52;2.42;;;0.70;;
69744;SDS011;57015;50.120;-5.168;2023-03-01T09:45:33;2.20;;;0.63;;
69744;SDS011;57015;50.120;-5.168;2023-03-01T09:48:00;2.97;;;0.98;;
69744;SDS011;57015;50.120;-5.168;2023-03-01T09:50:26;5.30;;;0.70;;
69744;SDS011;57015;50.120;-5.168;2023-03-01T09:55:36;3.53;;;0.90;;
69744;SDS011;57015;50.120;-5.168;2023-03-01T10:00:51;2.40;;;0.87;;
69744;SDS011;57015;50.120;-5.168;2023-03-01T10:11:32;2.70;;;0.80;;
69744;SDS011;57015;50.120;-5.168;2023-03-01T10:22:10;2.27;;;0.67;;
69744;SDS011;57015;50.120;-5.168;2023-03-01T10:24:39;4.40;;;0.65;;
69744;SDS011;57015;50.120;-5.168;2023-03-01T10:27:05;1.40;;;0.30;;
69744;SDS011;57015;50.120;-5.168;2023-03-01T10:32:28;1.73;;;0.38;;
69744;SDS011;57015;50.120;-5.168;2023-03-01T10:34:54;2.15;;;0.47;;
69744;SDS011;57015;50.120;-5.168;2023-03-01T10:37:20;1.30;;;0.30;;
69744;SDS011;57015;50.120;-5.168;2023-03-01T10:42:27;2.30;;;0.40;;
69744;SDS011;57015;50.120;-5.168;2023-03-01T10:44:57;2.00;;;0.30;;
69744;SDS011;57015;50.120;-5.168;2023-03-01T10:47:24;2.13;;;0.40;;
69744;SDS011;57015;50.120;-5.168;2023-03-01T10:49:51;1.13;;;0.35;;
69744;SDS011;57015;50.120;-5.168;2023-03-01T10:52:23;2.38;;;0.50;;
69744;SDS011;57015;50.120;-5.168;2023-03-01T10:54:57;1.77;;;0.15;;
69744;SDS011;57015;50.120;-5.168;2023-03-01T10:57:37;1.83;;;0.40;;
69744;SDS011;57015;50.120;-5.168;2023-03-01T11:00:17;2.10;;;0.50;;
69744;SDS011;57015;50.120;-5.168;2023-03-01T11:03:10;1.65;;;0.25;;
69744;SDS011;57015;50.120;-5.168;2023-03-01T11:05:36;1.30;;;0.30;;
69744;SDS011;57015;50.120;-5.168;2023-03-01T11:08:02;1.37;;;0.40;;
69744;SDS011;57015;50.120;-5.168;2023-03-01T11:10:29;2.25;;;0.20;;
69744;SDS011;57015;50.120;-5.168;2023-03-01T11:13:18;2.45;;;0.30;;
69744;SDS011;57015;50.120;-5.168;2023-03-01T11:15:43;0.90;;;0.20;;
69744;SDS011;57015;50.120;-5.168;2023-03-01T11:18:23;1.25;;;0.20;;
69744;SDS011;57015;50.120;-5.168;2023-03-01T11:20:56;1.35;;;0.40;;
69744;SDS011;57015;50.120;-5.168;2023-03-01T11:23:23;1.27;;;0.30;;
69744;SDS011;57015;50.120;-5.168;2023-03-01T11:25:54;1.37;;;0.20;;
69744;SDS011;57015;50.120;-5.168;2023-03-01T11:28:21;2.05;;;0.40;;
69744;SDS011;57015;50.120;-5.168;2023-03-01T11:30:58;1.42;;;0.30;;
69744;SDS011;57015;50.120;-5.168;2023-03-01T11:36:08;2.65;;;0.60;;
69744;SDS011;57015;50.120;-5.168;2023-03-01T11:38:41;1.50;;;0.30;;
69744;SDS011;57015;50.120;-5.168;2023-03-01T11:41:10;1.88;;;0.40;;
69744;SDS011;57015;50.120;-5.168;2023-03-01T11:44:11;1.23;;;0.30;;
69744;SDS011;57015;50.120;-5.168;2023-03-01T12:07:53;2.57;;;0.40;;
69744;SDS011;57015;50.120;-5.168;2023-03-01T12:10:28;1.50;;;0.30;;
69744;SDS011;57015;50.120;-5.168;2023-03-01T12:13:51;1.48;;;0.30;;
69744;SDS011;57015;50.120;-5.168;2023-03-01T12:21:21;1.53;;;0.40;;
69744;SDS011;57015;50.120;-5.168;2023-03-01T12:29:38;1.05;;;0.22;;
69744;SDS011;57015;50.120;-5.168;2023-03-01T12:37:29;1.13;;;0.30;;
69744;SDS011;57015;50.120;-5.168;2023-03-01T12:50:52;2.25;;;0.20;;
69744;SDS011;57015;50.120;-5.168;2023-03-01T12:53:27;0.88;;;0.20;;
69744;SDS011;57015;50.120;-5.168;2023-03-01T12:55:56;0.50;;;0.30;;
69744;SDS011;57015;50.120;-5.168;2023-03-01T13:03:36;1.40;;;0.30;;
69744;SDS011;57015;50.120;-5.168;2023-03-01T13:06:11;1.33;;;0.30;;
69744;SDS011;57015;50.120;-5.168;2023-03-01T13:08:42;0.63;;;0.20;;
69744;SDS011;57015;50.120;-5.168;2023-03-01T13:11:22;2.83;;;0.20;;
69744;SDS011;57015;50.120;-5.168;2023-03-01T13:13:48;1.08;;;0.20;;
69744;SDS011;57015;50.120;-5.168;2023-03-01T13:16:20;0.80;;;0.20;;
69744;SDS011;57015;50.120;-5.168;2023-03-01T13:19:12;0.52;;;0.20;;
69744;SDS011;57015;50.120;-5.168;2023-03-01T13:21:45;1.48;;;0.10;;
69744;SDS011;57015;50.120;-5.168;2023-03-01T13:24:24;0.93;;;0.20;;
69744;SDS011;57015;50.120;-5.168;2023-03-01T13:29:46;0.50;;;0.20;;
69744;SDS011;57015;50.120;-5.168;2023-03-01T13:32:28;0.68;;;0.10;;
69744;SDS011;57015;50.120;-5.168;2023-03-01T13:35:00;1.70;;;0.20;;
69744;SDS011;57015;50.120;-5.168;2023-03-01T13:37:35;2.38;;;0.20;;
69744;SDS011;57015;50.120;-5.168;2023-03-01T13:42:49;1.33;;;0.30;;
69744;SDS011;57015;50.120;-5.168;2023-03-01T13:45:58;1.48;;;0.30;;
69744;SDS011;57015;50.120;-5.168;2023-03-01T13:48:09;3.50;;;0.22;;
69744;SDS011;57015;50.120;-5.168;2023-03-01T13:50:38;1.25;;;0.17;;
69744;SDS011;57015;50.120;-5.168;2023-03-01T13:53:18;6.20;;;0.32;;
69744;SDS011;57015;50.120;-5.168;2023-03-01T13:55:45;1.83;;;0.40;;
69744;SDS011;57015;50.120;-5.168;2023-03-01T13:58:18;0.95;;;0.20;;
69744;SDS011;57015;50.120;-5.168;2023-03-01T14:00:46;1.00;;;0.28;;
69744;SDS011;57015;50.120;-5.168;2023-03-01T14:03:16;0.70;;;0.20;;
69744;SDS011;57015;50.120;-5.168;2023-03-01T14:06:03;0.68;;;0.20;;
69744;SDS011;57015;50.120;-5.168;2023-03-01T14:08:33;1.42;;;0.40;;
69744;SDS011;57015;50.120;-5.168;2023-03-01T14:16:49;1.30;;;0.20;;
69744;SDS011;57015;50.120;-5.168;2023-03-01T14:19:18;1.58;;;0.43;;
69744;SDS011;57015;50.120;-5.168;2023-03-01T14:21:57;1.15;;;0.32;;
69744;SDS011;57015;50.120;-5.168;2023-03-01T14:24:25;0.93;;;0.20;;
69744;SDS011;57015;50.120;-5.168;2023-03-01T14:26:52;1.33;;;0.30;;
69744;SDS011;57015;50.120;-5.168;2023-03-01T14:29:27;1.60;;;0.30;;
69744;SDS011;57015;50.120;-5.168;2023-03-01T14:34:45;1.10;;;0.30;;
69744;SDS011;57015;50.120;-5.168;2023-03-01T14:37:26;1.17;;;0.30;;
69744;SDS011;57015;50.120;-5.168;2023-03-01T14:39:54;1.63;;;0.30;;
69744;SDS011;57015;50.120;-5.168;2023-03-01T14:42:21;1.17;;;0.40;;
69744;SDS011;57015;50.120;-5.168;2023-03-01T14:44:48;5.53;;;1.85;;
69744;SDS011;57015;50.120;-5.168;2023-03-01T14:47:16;1.77;;;0.40;;
69744;SDS011;57015;50.120;-5.168;2023-03-01T14:49:49;1.33;;;0.20;;
69744;SDS011;57015;50.120;-5.168;2023-03-01T14:52:21;1.00;;;0.30;;
69744;SDS011;57015;50.120;-5.168;2023-03-01T14:54:48;1.15;;;0.30;;
69744;SDS011;57015;50.120;-5.168;2023-03-01T14:57:23;1.08;;;0.20;;
69744;SDS011;57015;50.120;-5.168;2023-03-01T14:59:50;1.83;;;0.40;;
69744;SDS011;57015;50.120;-5.168;2023-03-01T15:02:30;1.63;;;0.32;;
69744;SDS011;57015;50.120;-5.168;2023-03-01T15:04:57;3.35;;;0.68;;
69744;SDS011;57015;50.120;-5.168;2023-03-01T15:07:26;1.08;;;0.30;;
69744;SDS011;57015;50.120;-5.168;2023-03-01T15:09:54;3.05;;;0.32;;
69744;SDS011;57015;50.120;-5.168;2023-03-01T15:14:57;1.88;;;0.55;;
69744;SDS011;57015;50.120;-5.168;2023-03-01T15:17:28;2.00;;;0.57;;
69744;SDS011;57015;50.120;-5.168;2023-03-01T15:19:57;1.58;;;0.50;;
69744;SDS011;57015;50.120;-5.168;2023-03-01T15:22:23;2.90;;;0.52;;
69744;SDS011;57015;50.120;-5.168;2023-03-01T15:24:50;1.67;;;0.60;;
69744;SDS011;57015;50.120;-5.168;2023-03-01T15:27:17;2.95;;;0.60;;
69744;SDS011;57015;50.120;-5.168;2023-03-01T15:29:48;2.10;;;0.63;;
69744;SDS011;57015;50.120;-5.168;2023-03-01T15:32:35;1.70;;;0.50;;
69744;SDS011;57015;50.120;-5.168;2023-03-01T15:40:58;1.35;;;0.40;;
69744;SDS011;57015;50.120;-5.168;2023-03-01T15:43:39;1.42;;;0.32;;
69744;SDS011;57015;50.120;-5.168;2023-03-01T15:46:11;2.00;;;0.40;;
69744;SDS011;57015;50.120;-5.168;2023-03-01T15:48:45;2.33;;;0.50;;
69744;SDS011;57015;50.120;-5.168;2023-03-01T15:51:14;1.63;;;0.57;;
69744;SDS011;57015;50.120;-5.168;2023-03-01T15:53:49;4.13;;;0.28;;
69744;SDS011;57015;50.120;-5.168;2023-03-01T15:56:15;2.60;;;0.33;;
69744;SDS011;57015;50.120;-5.168;2023-03-01T15:58:41;2.05;;;0.30;;
69744;SDS011;57015;50.120;-5.168;2023-03-01T16:01:13;1.10;;;0.30;;
69744;SDS011;57015;50.120;-5.168;2023-03-01T16:03:39;2.17;;;0.40;;
69744;SDS011;57015;50.120;-5.168;2023-03-01T16:06:05;0.93;;;0.40;;
69744;SDS011;57015;50.120;-5.168;2023-03-01T16:08:30;2.20;;;0.30;;
69744;SDS011;57015;50.120;-5.168;2023-03-01T16:10:56;1.53;;;0.33;;
69744;SDS011;57015;50.120;-5.168;2023-03-01T16:13:21;1.70;;;0.30;;
69744;SDS011;57015;50.120;-5.168;2023-03-01T16:15:46;1.05;;;0.30;;
69744;SDS011;57015;50.120;-5.168;2023-03-01T16:18:12;1.50;;;0.30;;
69744;SDS011;57015;50.120;-5.168;2023-03-01T16:20:37;2.07;;;0.30;;
69744;SDS011;57015;50.120;-5.168;2023-03-01T16:23:04;2.23;;;0.67;;
69744;SDS011;57015;50.120;-5.168;2023-03-01T16:25:32;1.65;;;0.40;;
69744;SDS011;57015;50.120;-5.168;2023-03-01T16:27:59;1.50;;;0.45;;
69744;SDS011;57015;50.120;-5.168;2023-03-01T16:30:26;3.53;;;0.70;;
69744;SDS011;57015;50.120;-5.168;2023-03-01T16:32:51;2.00;;;0.50;;
69744;SDS011;57015;50.120;-5.168;2023-03-01T16:35:20;1.40;;;0.50;;
69744;SDS011;57015;50.120;-5.168;2023-03-01T16:37:46;1.92;;;0.40;;
69744;SDS011;57015;50.120;-5.168;2023-03-01T16:40:16;2.17;;;0.30;;